sensor_id;sensor_type;location;lat;lon;timestamp;P1;durP1;ratioP1;P2;durP2;ratioP2
34499;SDS011;20745;50.882;6.962;2022-08-01T00:00:11;3.85;;;1.30;;
34499;SDS011;20745;50.882;6.962;2022-08-01T00:02:45;4.32;;;1.20;;
34499;SDS011;20745;50.882;6.962;2022-08-01T00:05:13;4.82;;;1.42;;
34499;SDS011;20745;50.882;6.962;2022-08-01T00:07:40;6.10;;;1.40;;
34499;SDS011;20745;50.882;6.962;2022-08-01T00:10:12;4.35;;;1.27;;
34499;SDS011;20745;50.882;6.962;2022-08-01T00:12:41;6.22;;;1.55;;
34499;SDS011;20745;50.882;6.962;2022-08-01T00:15:10;5.25;;;1.40;;
34499;SDS011;20745;50.882;6.962;2022-08-01T00:17:45;4.72;;;1.60;;
34499;SDS011;20745;50.882;6.962;2022-08-01T00:20:13;3.53;;;1.40;;
34499;SDS011;20745;50.882;6.962;2022-08-01T00:22:40;4.32;;;1.60;;
34499;SDS011;20745;50.882;6.962;2022-08-01T00:25:08;5.40;;;1.48;;
34499;SDS011;20745;50.882;6.962;2022-08-01T00:27:39;4.32;;;1.85;;
34499;SDS011;20745;50.882;6.962;2022-08-01T00:30:10;4.38;;;1.50;;
34499;SDS011;20745;50.882;6.962;2022-08-01T00:32:41;6.53;;;1.55;;
34499;SDS011;20745;50.882;6.962;2022-08-01T00:35:14;4.22;;;1.70;;
34499;SDS011;20745;50.882;6.962;2022-08-01T00:37:46;7.30;;;1.70;;
34499;SDS011;20745;50.882;6.962;2022-08-01T00:40:14;7.28;;;1.67;;
34499;SDS011;20745;50.882;6.962;2022-08-01T00:42:44;4.38;;;1.67;;
34499;SDS011;20745;50.882;6.962;2022-08-01T00:45:11;5.43;;;1.83;;
34499;SDS011;20745;50.882;6.962;2022-08-01T00:47:38;7.28;;;1.70;;
34499;SDS011;20745;50.882;6.962;2022-08-01T00:50:06;6.30;;;1.80;;
34499;SDS011;20745;50.882;6.962;2022-08-01T00:52:34;5.82;;;1.85;;
34499;SDS011;20745;50.882;6.962;2022-08-01T00:55:02;8.05;;;1.77;;
34499;SDS011;20745;50.882;6.962;2022-08-01T00:57:31;4.73;;;1.87;;
34499;SDS011;20745;50.882;6.962;2022-08-01T01:00:19;6.05;;;1.70;;
34499;SDS011;20745;50.882;6.962;2022-08-01T01:02:53;8.70;;;2.05;;
34499;SDS011;20745;50.882;6.962;2022-08-01T01:05:20;6.25;;;1.70;;
34499;SDS011;20745;50.882;6.962;2022-08-01T01:07:57;6.90;;;1.92;;
34499;SDS011;20745;50.882;6.962;2022-08-01T01:10:31;6.90;;;1.50;;
34499;SDS011;20745;50.882;6.962;2022-08-01T01:13:16;5.53;;;1.55;;
34499;SDS011;20745;50.882;6.962;2022-08-01T01:15:49;4.43;;;1.40;;
34499;SDS011;20745;50.882;6.962;2022-08-01T01:18:26;5.13;;;1.83;;
34499;SDS011;20745;50.882;6.962;2022-08-01T01:26:50;3.95;;;1.58;;
34499;SDS011;20745;50.882;6.962;2022-08-01T01:32:30;7.35;;;1.98;;
34499;SDS011;20745;50.882;6.962;2022-08-01T01:35:05;6.72;;;1.75;;
34499;SDS011;20745;50.882;6.962;2022-08-01T01:37:39;6.72;;;2.00;;
34499;SDS011;20745;50.882;6.962;2022-08-01T01:40:09;7.90;;;1.70;;
34499;SDS011;20745;50.882;6.962;2022-08-01T01:42:41;9.07;;;2.08;;
34499;SDS011;20745;50.882;6.962;2022-08-01T01:45:13;5.72;;;2.08;;
34499;SDS011;20745;50.882;6.962;2022-08-01T01:47:51;7.57;;;2.47;;
34499;SDS011;20745;50.882;6.962;2022-08-01T01:50:20;7.13;;;2.10;;
34499;SDS011;20745;50.882;6.962;2022-08-01T01:52:49;6.70;;;2.40;;
34499;SDS011;20745;50.882;6.962;2022-08-01T01:55:24;6.70;;;2.15;;
34499;SDS011;20745;50.882;6.962;2022-08-01T01:57:53;6.97;;;2.22;;
34499;SDS011;20745;50.882;6.962;2022-08-01T02:00:22;7.53;;;2.17;;
34499;SDS011;20745;50.882;6.962;2022-08-01T02:02:53;7.75;;;1.95;;
34499;SDS011;20745;50.882;6.962;2022-08-01T02:05:23;8.50;;;2.15;;
34499;SDS011;20745;50.882;6.962;2022-08-01T02:07:51;6.53;;;2.05;;
34499;SDS011;20745;50.882;6.962;2022-08-01T02:10:25;7.63;;;2.22;;
34499;SDS011;20745;50.882;6.962;2022-08-01T02:15:29;11.35;;;2.10;;
34499;SDS011;20745;50.882;6.962;2022-08-01T02:17:58;4.95;;;1.88;;
34499;SDS011;20745;50.882;6.962;2022-08-01T02:20:28;6.45;;;2.20;;
34499;SDS011;20745;50.882;6.962;2022-08-01T02:23:00;10.55;;;2.60;;
34499;SDS011;20745;50.882;6.962;2022-08-01T02:25:44;6.45;;;2.13;;
34499;SDS011;20745;50.882;6.962;2022-08-01T02:28:36;11.50;;;2.28;;
34499;SDS011;20745;50.882;6.962;2022-08-01T02:31:10;8.18;;;2.22;;
34499;SDS011;20745;50.882;6.962;2022-08-01T02:33:45;8.65;;;1.95;;
34499;SDS011;20745;50.882;6.962;2022-08-01T02:36:17;7.03;;;2.00;;
34499;SDS011;20745;50.882;6.962;2022-08-01T02:38:59;6.85;;;2.33;;
34499;SDS011;20745;50.882;6.962;2022-08-01T02:41:36;7.50;;;2.20;;
34499;SDS011;20745;50.882;6.962;2022-08-01T02:44:06;8.40;;;2.03;;
34499;SDS011;20745;50.882;6.962;2022-08-01T02:46:37;5.75;;;2.08;;
34499;SDS011;20745;50.882;6.962;2022-08-01T02:49:07;6.22;;;2.13;;
34499;SDS011;20745;50.882;6.962;2022-08-01T02:51:46;8.75;;;2.80;;
34499;SDS011;20745;50.882;6.962;2022-08-01T02:54:15;8.52;;;2.47;;
34499;SDS011;20745;50.882;6.962;2022-08-01T02:56:51;6.43;;;2.03;;
34499;SDS011;20745;50.882;6.962;2022-08-01T02:59:24;6.80;;;2.20;;
34499;SDS011;20745;50.882;6.962;2022-08-01T03:01:58;9.20;;;2.40;;
34499;SDS011;20745;50.882;6.962;2022-08-01T03:04:28;9.75;;;2.25;;
34499;SDS011;20745;50.882;6.962;2022-08-01T03:07:09;10.55;;;2.78;;
34499;SDS011;20745;50.882;6.962;2022-08-01T03:09:38;10.05;;;2.53;;
34499;SDS011;20745;50.882;6.962;2022-08-01T03:12:13;8.93;;;2.60;;
34499;SDS011;20745;50.882;6.962;2022-08-01T03:14:43;9.98;;;2.95;;
34499;SDS011;20745;50.882;6.962;2022-08-01T03:17:16;9.18;;;2.38;;
34499;SDS011;20745;50.882;6.962;2022-08-01T03:19:46;7.95;;;2.20;;
34499;SDS011;20745;50.882;6.962;2022-08-01T03:22:17;8.07;;;2.53;;
34499;SDS011;20745;50.882;6.962;2022-08-01T03:24:46;11.27;;;2.72;;
34499;SDS011;20745;50.882;6.962;2022-08-01T03:27:18;8.02;;;2.75;;
34499;SDS011;20745;50.882;6.962;2022-08-01T03:29:54;9.75;;;2.85;;
34499;SDS011;20745;50.882;6.962;2022-08-01T03:32:26;8.43;;;2.92;;
34499;SDS011;20745;50.882;6.962;2022-08-01T03:34:54;7.68;;;2.72;;
34499;SDS011;20745;50.882;6.962;2022-08-01T03:37:42;9.13;;;2.60;;
34499;SDS011;20745;50.882;6.962;2022-08-01T03:40:39;10.55;;;2.78;;
34499;SDS011;20745;50.882;6.962;2022-08-01T03:43:13;10.52;;;2.83;;
34499;SDS011;20745;50.882;6.962;2022-08-01T03:45:53;12.18;;;3.00;;
34499;SDS011;20745;50.882;6.962;2022-08-01T03:48:27;12.25;;;3.03;;
34499;SDS011;20745;50.882;6.962;2022-08-01T03:50:56;9.18;;;2.90;;
34499;SDS011;20745;50.882;6.962;2022-08-01T03:53:27;8.15;;;3.08;;
34499;SDS011;20745;50.882;6.962;2022-08-01T03:56:01;13.68;;;2.92;;
34499;SDS011;20745;50.882;6.962;2022-08-01T03:58:29;8.13;;;2.97;;
34499;SDS011;20745;50.882;6.962;2022-08-01T04:00:57;9.48;;;2.90;;
34499;SDS011;20745;50.882;6.962;2022-08-01T04:03:25;12.18;;;3.75;;
34499;SDS011;20745;50.882;6.962;2022-08-01T04:05:53;13.23;;;3.50;;
34499;SDS011;20745;50.882;6.962;2022-08-01T04:08:20;11.35;;;3.28;;
34499;SDS011;20745;50.882;6.962;2022-08-01T04:10:55;13.13;;;3.75;;
34499;SDS011;20745;50.882;6.962;2022-08-01T04:13:22;11.63;;;3.70;;
34499;SDS011;20745;50.882;6.962;2022-08-01T04:15:49;12.07;;;4.13;;
34499;SDS011;20745;50.882;6.962;2022-08-01T04:18:17;13.18;;;4.00;;
34499;SDS011;20745;50.882;6.962;2022-08-01T04:20:46;14.30;;;4.13;;
34499;SDS011;20745;50.882;6.962;2022-08-01T04:23:16;12.10;;;4.00;;
34499;SDS011;20745;50.882;6.962;2022-08-01T04:25:47;11.82;;;3.80;;
34499;SDS011;20745;50.882;6.962;2022-08-01T04:28:16;9.70;;;3.67;;
34499;SDS011;20745;50.882;6.962;2022-08-01T04:30:46;12.40;;;4.45;;
34499;SDS011;20745;50.882;6.962;2022-08-01T04:33:18;13.77;;;4.18;;
34499;SDS011;20745;50.882;6.962;2022-08-01T04:35:47;12.33;;;4.23;;
34499;SDS011;20745;50.882;6.962;2022-08-01T04:38:33;12.80;;;4.53;;
34499;SDS011;20745;50.882;6.962;2022-08-01T04:41:03;13.10;;;4.45;;
34499;SDS011;20745;50.882;6.962;2022-08-01T04:43:36;14.43;;;4.40;;
34499;SDS011;20745;50.882;6.962;2022-08-01T04:46:08;14.60;;;5.15;;
34499;SDS011;20745;50.882;6.962;2022-08-01T04:48:37;13.90;;;4.57;;
34499;SDS011;20745;50.882;6.962;2022-08-01T04:51:11;12.40;;;4.95;;
34499;SDS011;20745;50.882;6.962;2022-08-01T04:53:42;14.75;;;5.38;;
34499;SDS011;20745;50.882;6.962;2022-08-01T04:56:10;19.38;;;6.00;;
34499;SDS011;20745;50.882;6.962;2022-08-01T05:01:13;16.52;;;5.43;;
34499;SDS011;20745;50.882;6.962;2022-08-01T05:03:41;15.30;;;5.40;;
34499;SDS011;20745;50.882;6.962;2022-08-01T05:06:17;16.52;;;5.55;;
34499;SDS011;20745;50.882;6.962;2022-08-01T05:08:50;14.05;;;5.30;;
34499;SDS011;20745;50.882;6.962;2022-08-01T05:11:17;17.58;;;5.85;;
34499;SDS011;20745;50.882;6.962;2022-08-01T05:13:48;17.15;;;5.55;;
34499;SDS011;20745;50.882;6.962;2022-08-01T05:16:15;15.02;;;5.25;;
34499;SDS011;20745;50.882;6.962;2022-08-01T05:18:43;13.45;;;5.18;;
34499;SDS011;20745;50.882;6.962;2022-08-01T05:21:13;16.17;;;5.88;;
34499;SDS011;20745;50.882;6.962;2022-08-01T05:23:40;15.88;;;6.15;;
34499;SDS011;20745;50.882;6.962;2022-08-01T05:26:10;15.18;;;5.43;;
34499;SDS011;20745;50.882;6.962;2022-08-01T05:28:40;15.13;;;5.35;;
34499;SDS011;20745;50.882;6.962;2022-08-01T05:31:08;16.50;;;6.55;;
34499;SDS011;20745;50.882;6.962;2022-08-01T05:33:35;16.13;;;5.47;;
34499;SDS011;20745;50.882;6.962;2022-08-01T05:36:02;16.50;;;6.20;;
34499;SDS011;20745;50.882;6.962;2022-08-01T05:38:33;19.35;;;6.75;;
34499;SDS011;20745;50.882;6.962;2022-08-01T05:41:00;14.88;;;6.32;;
34499;SDS011;20745;50.882;6.962;2022-08-01T05:43:27;17.15;;;6.32;;
34499;SDS011;20745;50.882;6.962;2022-08-01T05:45:55;18.15;;;5.47;;
34499;SDS011;20745;50.882;6.962;2022-08-01T05:48:22;15.70;;;5.47;;
34499;SDS011;20745;50.882;6.962;2022-08-01T05:50:50;19.52;;;5.82;;
34499;SDS011;20745;50.882;6.962;2022-08-01T05:53:23;16.48;;;6.40;;
34499;SDS011;20745;50.882;6.962;2022-08-01T05:55:51;16.13;;;6.55;;
34499;SDS011;20745;50.882;6.962;2022-08-01T05:58:18;15.68;;;6.70;;
34499;SDS011;20745;50.882;6.962;2022-08-01T06:00:45;19.50;;;8.52;;
34499;SDS011;20745;50.882;6.962;2022-08-01T06:03:12;22.80;;;9.88;;
34499;SDS011;20745;50.882;6.962;2022-08-01T06:05:41;18.15;;;8.60;;
34499;SDS011;20745;50.882;6.962;2022-08-01T06:08:08;20.35;;;9.02;;
34499;SDS011;20745;50.882;6.962;2022-08-01T06:10:39;21.15;;;9.07;;
34499;SDS011;20745;50.882;6.962;2022-08-01T06:13:06;21.88;;;9.68;;
34499;SDS011;20745;50.882;6.962;2022-08-01T06:15:33;22.70;;;9.63;;
34499;SDS011;20745;50.882;6.962;2022-08-01T06:18:01;19.17;;;9.15;;
34499;SDS011;20745;50.882;6.962;2022-08-01T06:20:28;20.38;;;8.02;;
34499;SDS011;20745;50.882;6.962;2022-08-01T06:22:55;20.90;;;8.68;;
34499;SDS011;20745;50.882;6.962;2022-08-01T06:25:32;19.95;;;7.97;;
34499;SDS011;20745;50.882;6.962;2022-08-01T06:28:00;19.42;;;7.38;;
34499;SDS011;20745;50.882;6.962;2022-08-01T06:30:27;17.55;;;7.90;;
34499;SDS011;20745;50.882;6.962;2022-08-01T06:33:03;19.23;;;8.65;;
34499;SDS011;20745;50.882;6.962;2022-08-01T06:35:31;24.48;;;9.45;;
34499;SDS011;20745;50.882;6.962;2022-08-01T06:37:58;19.63;;;8.45;;
34499;SDS011;20745;50.882;6.962;2022-08-01T06:40:26;21.30;;;8.15;;
34499;SDS011;20745;50.882;6.962;2022-08-01T06:42:53;20.85;;;7.68;;
34499;SDS011;20745;50.882;6.962;2022-08-01T06:45:20;21.27;;;8.25;;
34499;SDS011;20745;50.882;6.962;2022-08-01T06:47:49;20.27;;;8.32;;
34499;SDS011;20745;50.882;6.962;2022-08-01T06:50:17;21.73;;;8.50;;
34499;SDS011;20745;50.882;6.962;2022-08-01T06:52:45;19.77;;;8.10;;
34499;SDS011;20745;50.882;6.962;2022-08-01T06:55:13;18.00;;;7.15;;
34499;SDS011;20745;50.882;6.962;2022-08-01T06:57:52;17.27;;;7.22;;
34499;SDS011;20745;50.882;6.962;2022-08-01T07:00:20;20.67;;;7.97;;
34499;SDS011;20745;50.882;6.962;2022-08-01T07:03:01;15.75;;;7.07;;
34499;SDS011;20745;50.882;6.962;2022-08-01T07:05:28;24.10;;;7.22;;
34499;SDS011;20745;50.882;6.962;2022-08-01T07:07:58;18.83;;;7.40;;
34499;SDS011;20745;50.882;6.962;2022-08-01T07:10:26;17.98;;;6.70;;
34499;SDS011;20745;50.882;6.962;2022-08-01T07:12:53;17.85;;;7.15;;
34499;SDS011;20745;50.882;6.962;2022-08-01T07:15:20;18.40;;;6.43;;
34499;SDS011;20745;50.882;6.962;2022-08-01T07:17:53;16.92;;;6.55;;
34499;SDS011;20745;50.882;6.962;2022-08-01T07:20:25;16.00;;;6.80;;
34499;SDS011;20745;50.882;6.962;2022-08-01T07:22:52;14.95;;;7.10;;
34499;SDS011;20745;50.882;6.962;2022-08-01T07:27:49;18.17;;;7.25;;
34499;SDS011;20745;50.882;6.962;2022-08-01T07:30:18;15.18;;;6.43;;
34499;SDS011;20745;50.882;6.962;2022-08-01T07:32:45;15.88;;;7.35;;
34499;SDS011;20745;50.882;6.962;2022-08-01T07:35:12;17.55;;;7.57;;
34499;SDS011;20745;50.882;6.962;2022-08-01T07:37:40;18.17;;;7.57;;
34499;SDS011;20745;50.882;6.962;2022-08-01T07:40:17;18.92;;;7.88;;
34499;SDS011;20745;50.882;6.962;2022-08-01T07:42:45;16.45;;;7.60;;
34499;SDS011;20745;50.882;6.962;2022-08-01T07:45:13;17.90;;;8.27;;
34499;SDS011;20745;50.882;6.962;2022-08-01T07:47:46;17.33;;;7.43;;
34499;SDS011;20745;50.882;6.962;2022-08-01T07:50:13;16.95;;;7.13;;
34499;SDS011;20745;50.882;6.962;2022-08-01T07:52:40;15.57;;;6.68;;
34499;SDS011;20745;50.882;6.962;2022-08-01T07:55:09;15.90;;;6.90;;
34499;SDS011;20745;50.882;6.962;2022-08-01T07:57:42;15.45;;;6.80;;
34499;SDS011;20745;50.882;6.962;2022-08-01T08:00:09;17.23;;;7.30;;
34499;SDS011;20745;50.882;6.962;2022-08-01T08:02:39;16.38;;;7.10;;
34499;SDS011;20745;50.882;6.962;2022-08-01T08:05:12;13.90;;;6.50;;
34499;SDS011;20745;50.882;6.962;2022-08-01T08:07:40;15.43;;;6.70;;
34499;SDS011;20745;50.882;6.962;2022-08-01T08:10:07;15.65;;;7.25;;
34499;SDS011;20745;50.882;6.962;2022-08-01T08:12:35;15.27;;;6.53;;
34499;SDS011;20745;50.882;6.962;2022-08-01T08:15:02;15.63;;;6.30;;
34499;SDS011;20745;50.882;6.962;2022-08-01T08:17:32;12.80;;;5.93;;
34499;SDS011;20745;50.882;6.962;2022-08-01T08:20:08;15.77;;;6.75;;
34499;SDS011;20745;50.882;6.962;2022-08-01T08:22:36;14.85;;;6.82;;
34499;SDS011;20745;50.882;6.962;2022-08-01T08:25:03;16.85;;;7.35;;
34499;SDS011;20745;50.882;6.962;2022-08-01T08:27:33;19.50;;;7.53;;
34499;SDS011;20745;50.882;6.962;2022-08-01T08:30:04;14.32;;;6.18;;
34499;SDS011;20745;50.882;6.962;2022-08-01T08:32:35;14.02;;;5.95;;
34499;SDS011;20745;50.882;6.962;2022-08-01T08:35:03;15.25;;;6.93;;
34499;SDS011;20745;50.882;6.962;2022-08-01T08:37:33;17.20;;;6.68;;
34499;SDS011;20745;50.882;6.962;2022-08-01T08:40:13;16.25;;;6.55;;
34499;SDS011;20745;50.882;6.962;2022-08-01T08:42:46;13.88;;;5.50;;
34499;SDS011;20745;50.882;6.962;2022-08-01T08:45:14;15.23;;;6.05;;
34499;SDS011;20745;50.882;6.962;2022-08-01T08:47:41;16.05;;;6.97;;
34499;SDS011;20745;50.882;6.962;2022-08-01T08:50:13;17.80;;;7.43;;
34499;SDS011;20745;50.882;6.962;2022-08-01T08:52:40;12.98;;;5.78;;
34499;SDS011;20745;50.882;6.962;2022-08-01T08:55:09;17.55;;;6.60;;
34499;SDS011;20745;50.882;6.962;2022-08-01T08:57:39;13.95;;;6.03;;
34499;SDS011;20745;50.882;6.962;2022-08-01T09:00:10;13.50;;;4.93;;
34499;SDS011;20745;50.882;6.962;2022-08-01T09:02:44;10.60;;;4.10;;
34499;SDS011;20745;50.882;6.962;2022-08-01T09:05:14;12.02;;;4.20;;
34499;SDS011;20745;50.882;6.962;2022-08-01T09:07:45;10.45;;;4.25;;
34499;SDS011;20745;50.882;6.962;2022-08-01T09:10:13;11.90;;;4.78;;
34499;SDS011;20745;50.882;6.962;2022-08-01T09:12:54;13.50;;;5.55;;
34499;SDS011;20745;50.882;6.962;2022-08-01T09:15:38;11.52;;;4.25;;
34499;SDS011;20745;50.882;6.962;2022-08-01T09:18:33;13.07;;;4.07;;
34499;SDS011;20745;50.882;6.962;2022-08-01T09:21:07;12.50;;;4.88;;
34499;SDS011;20745;50.882;6.962;2022-08-01T09:23:48;13.43;;;5.15;;
34499;SDS011;20745;50.882;6.962;2022-08-01T09:29:02;13.00;;;4.57;;
34499;SDS011;20745;50.882;6.962;2022-08-01T09:31:42;10.93;;;4.72;;
34499;SDS011;20745;50.882;6.962;2022-08-01T09:34:14;10.88;;;4.40;;
34499;SDS011;20745;50.882;6.962;2022-08-01T09:39:23;12.60;;;5.13;;
34499;SDS011;20745;50.882;6.962;2022-08-01T09:41:58;14.18;;;5.32;;
34499;SDS011;20745;50.882;6.962;2022-08-01T09:44:40;12.40;;;4.80;;
34499;SDS011;20745;50.882;6.962;2022-08-01T09:47:12;12.02;;;4.78;;
34499;SDS011;20745;50.882;6.962;2022-08-01T09:49:42;11.50;;;4.50;;
34499;SDS011;20745;50.882;6.962;2022-08-01T09:52:25;13.68;;;5.00;;
34499;SDS011;20745;50.882;6.962;2022-08-01T09:54:56;12.82;;;4.90;;
34499;SDS011;20745;50.882;6.962;2022-08-01T09:57:28;13.70;;;4.93;;
34499;SDS011;20745;50.882;6.962;2022-08-01T09:59:57;10.60;;;4.50;;
34499;SDS011;20745;50.882;6.962;2022-08-01T10:02:34;12.82;;;5.20;;
34499;SDS011;20745;50.882;6.962;2022-08-01T10:05:04;12.57;;;4.78;;
34499;SDS011;20745;50.882;6.962;2022-08-01T10:07:55;11.75;;;4.82;;
34499;SDS011;20745;50.882;6.962;2022-08-01T10:10:34;13.68;;;4.60;;
34499;SDS011;20745;50.882;6.962;2022-08-01T10:15:31;11.05;;;4.15;;
34499;SDS011;20745;50.882;6.962;2022-08-01T10:18:04;9.77;;;3.80;;
34499;SDS011;20745;50.882;6.962;2022-08-01T10:20:42;11.18;;;4.30;;
34499;SDS011;20745;50.882;6.962;2022-08-01T10:23:10;8.98;;;3.97;;
34499;SDS011;20745;50.882;6.962;2022-08-01T10:25:40;9.73;;;3.45;;
34499;SDS011;20745;50.882;6.962;2022-08-01T10:28:14;9.57;;;3.80;;
34499;SDS011;20745;50.882;6.962;2022-08-01T10:30:53;10.93;;;4.03;;
34499;SDS011;20745;50.882;6.962;2022-08-01T10:33:22;16.40;;;4.97;;
34499;SDS011;20745;50.882;6.962;2022-08-01T10:36:10;11.35;;;4.22;;
34499;SDS011;20745;50.882;6.962;2022-08-01T10:38:37;11.77;;;4.43;;
34499;SDS011;20745;50.882;6.962;2022-08-01T10:41:06;12.73;;;4.20;;
34499;SDS011;20745;50.882;6.962;2022-08-01T10:43:35;8.52;;;3.75;;
34499;SDS011;20745;50.882;6.962;2022-08-01T10:46:05;11.88;;;3.67;;
34499;SDS011;20745;50.882;6.962;2022-08-01T10:48:39;12.15;;;4.13;;
34499;SDS011;20745;50.882;6.962;2022-08-01T10:51:13;9.45;;;3.70;;
34499;SDS011;20745;50.882;6.962;2022-08-01T10:53:50;10.20;;;4.22;;
34499;SDS011;20745;50.882;6.962;2022-08-01T10:56:26;11.10;;;3.90;;
34499;SDS011;20745;50.882;6.962;2022-08-01T10:59:15;8.25;;;3.75;;
34499;SDS011;20745;50.882;6.962;2022-08-01T11:02:08;10.23;;;3.78;;
34499;SDS011;20745;50.882;6.962;2022-08-01T11:07:18;9.88;;;4.07;;
34499;SDS011;20745;50.882;6.962;2022-08-01T11:10:06;9.55;;;3.92;;
34499;SDS011;20745;50.882;6.962;2022-08-01T11:12:42;8.88;;;3.92;;
34499;SDS011;20745;50.882;6.962;2022-08-01T11:17:37;10.38;;;4.70;;
34499;SDS011;20745;50.882;6.962;2022-08-01T11:20:21;12.20;;;4.50;;
34499;SDS011;20745;50.882;6.962;2022-08-01T11:28:36;11.68;;;3.75;;
34499;SDS011;20745;50.882;6.962;2022-08-01T11:33:47;10.88;;;3.72;;
34499;SDS011;20745;50.882;6.962;2022-08-01T11:38:43;8.20;;;3.78;;
34499;SDS011;20745;50.882;6.962;2022-08-01T11:44:23;9.48;;;3.85;;
34499;SDS011;20745;50.882;6.962;2022-08-01T11:47:02;9.05;;;3.30;;
34499;SDS011;20745;50.882;6.962;2022-08-01T11:54:44;8.60;;;3.45;;
34499;SDS011;20745;50.882;6.962;2022-08-01T11:57:17;9.85;;;3.85;;
34499;SDS011;20745;50.882;6.962;2022-08-01T11:59:51;9.07;;;3.78;;
34499;SDS011;20745;50.882;6.962;2022-08-01T12:02:32;11.02;;;3.35;;
34499;SDS011;20745;50.882;6.962;2022-08-01T12:05:02;10.88;;;3.40;;
34499;SDS011;20745;50.882;6.962;2022-08-01T12:07:38;7.53;;;3.30;;
34499;SDS011;20745;50.882;6.962;2022-08-01T12:10:09;9.75;;;3.60;;
34499;SDS011;20745;50.882;6.962;2022-08-01T12:12:46;7.95;;;2.95;;
34499;SDS011;20745;50.882;6.962;2022-08-01T12:15:17;9.32;;;3.40;;
34499;SDS011;20745;50.882;6.962;2022-08-01T12:17:46;10.23;;;3.20;;
34499;SDS011;20745;50.882;6.962;2022-08-01T12:20:26;9.52;;;3.20;;
34499;SDS011;20745;50.882;6.962;2022-08-01T12:23:02;7.50;;;2.60;;
34499;SDS011;20745;50.882;6.962;2022-08-01T12:25:34;6.78;;;3.15;;
34499;SDS011;20745;50.882;6.962;2022-08-01T12:28:03;8.98;;;2.92;;
34499;SDS011;20745;50.882;6.962;2022-08-01T12:30:37;6.80;;;2.80;;
34499;SDS011;20745;50.882;6.962;2022-08-01T12:33:06;7.15;;;2.95;;
34499;SDS011;20745;50.882;6.962;2022-08-01T12:35:38;7.80;;;2.35;;
34499;SDS011;20745;50.882;6.962;2022-08-01T12:38:15;8.63;;;2.80;;
34499;SDS011;20745;50.882;6.962;2022-08-01T12:40:46;7.90;;;3.13;;
34499;SDS011;20745;50.882;6.962;2022-08-01T12:43:20;10.43;;;3.38;;
34499;SDS011;20745;50.882;6.962;2022-08-01T12:45:55;7.50;;;2.50;;
34499;SDS011;20745;50.882;6.962;2022-08-01T12:48:29;6.35;;;2.75;;
34499;SDS011;20745;50.882;6.962;2022-08-01T12:50:58;10.93;;;3.35;;
34499;SDS011;20745;50.882;6.962;2022-08-01T12:53:28;6.43;;;2.90;;
34499;SDS011;20745;50.882;6.962;2022-08-01T12:58:36;6.95;;;2.92;;
34499;SDS011;20745;50.882;6.962;2022-08-01T13:01:11;6.75;;;2.83;;
34499;SDS011;20745;50.882;6.962;2022-08-01T13:03:41;9.07;;;3.20;;
34499;SDS011;20745;50.882;6.962;2022-08-01T13:06:30;8.48;;;2.63;;
34499;SDS011;20745;50.882;6.962;2022-08-01T13:09:07;7.38;;;2.95;;
34499;SDS011;20745;50.882;6.962;2022-08-01T13:11:58;8.98;;;3.45;;
34499;SDS011;20745;50.882;6.962;2022-08-01T13:14:36;11.23;;;3.22;;
34499;SDS011;20745;50.882;6.962;2022-08-01T13:17:07;8.93;;;3.35;;
34499;SDS011;20745;50.882;6.962;2022-08-01T13:19:44;10.57;;;3.30;;
34499;SDS011;20745;50.882;6.962;2022-08-01T13:22:16;10.45;;;3.65;;
34499;SDS011;20745;50.882;6.962;2022-08-01T13:24:52;9.30;;;3.25;;
34499;SDS011;20745;50.882;6.962;2022-08-01T13:27:40;8.38;;;2.80;;
34499;SDS011;20745;50.882;6.962;2022-08-01T13:30:24;8.50;;;2.53;;
34499;SDS011;20745;50.882;6.962;2022-08-01T13:33:09;7.47;;;2.25;;
34499;SDS011;20745;50.882;6.962;2022-08-01T13:35:37;6.47;;;2.67;;
34499;SDS011;20745;50.882;6.962;2022-08-01T13:38:05;8.68;;;2.42;;
34499;SDS011;20745;50.882;6.962;2022-08-01T13:40:35;6.15;;;2.15;;
34499;SDS011;20745;50.882;6.962;2022-08-01T13:43:02;6.60;;;2.35;;
34499;SDS011;20745;50.882;6.962;2022-08-01T13:45:29;9.10;;;2.70;;
34499;SDS011;20745;50.882;6.962;2022-08-01T13:48:05;6.88;;;2.10;;
34499;SDS011;20745;50.882;6.962;2022-08-01T13:50:51;9.70;;;2.30;;
34499;SDS011;20745;50.882;6.962;2022-08-01T13:53:57;6.47;;;2.17;;
34499;SDS011;20745;50.882;6.962;2022-08-01T13:56:27;6.85;;;1.90;;
34499;SDS011;20745;50.882;6.962;2022-08-01T13:58:54;5.63;;;1.98;;
34499;SDS011;20745;50.882;6.962;2022-08-01T14:01:22;6.85;;;2.05;;
34499;SDS011;20745;50.882;6.962;2022-08-01T14:03:50;4.32;;;1.80;;
34499;SDS011;20745;50.882;6.962;2022-08-01T14:06:18;5.00;;;1.85;;
34499;SDS011;20745;50.882;6.962;2022-08-01T14:08:48;3.53;;;1.50;;
34499;SDS011;20745;50.882;6.962;2022-08-01T14:11:22;3.35;;;1.70;;
34499;SDS011;20745;50.882;6.962;2022-08-01T14:13:53;2.95;;;1.60;;
34499;SDS011;20745;50.882;6.962;2022-08-01T14:16:39;5.53;;;1.75;;
34499;SDS011;20745;50.882;6.962;2022-08-01T14:19:06;5.55;;;1.70;;
34499;SDS011;20745;50.882;6.962;2022-08-01T14:21:33;6.32;;;1.75;;
34499;SDS011;20745;50.882;6.962;2022-08-01T14:24:00;6.13;;;1.75;;
34499;SDS011;20745;50.882;6.962;2022-08-01T14:26:27;4.63;;;1.48;;
34499;SDS011;20745;50.882;6.962;2022-08-01T14:29:02;6.25;;;2.22;;
34499;SDS011;20745;50.882;6.962;2022-08-01T14:31:32;5.38;;;2.03;;
34499;SDS011;20745;50.882;6.962;2022-08-01T14:34:00;8.32;;;1.85;;
34499;SDS011;20745;50.882;6.962;2022-08-01T14:36:38;6.38;;;1.80;;
34499;SDS011;20745;50.882;6.962;2022-08-01T14:39:13;3.85;;;1.77;;
34499;SDS011;20745;50.882;6.962;2022-08-01T14:41:47;5.25;;;1.77;;
34499;SDS011;20745;50.882;6.962;2022-08-01T14:44:23;5.18;;;1.48;;
34499;SDS011;20745;50.882;6.962;2022-08-01T14:46:58;4.35;;;1.40;;
34499;SDS011;20745;50.882;6.962;2022-08-01T14:49:33;3.92;;;1.60;;
34499;SDS011;20745;50.882;6.962;2022-08-01T14:52:29;7.43;;;1.48;;
34499;SDS011;20745;50.882;6.962;2022-08-01T14:54:57;6.28;;;1.67;;
34499;SDS011;20745;50.882;6.962;2022-08-01T14:57:24;5.03;;;1.60;;
34499;SDS011;20745;50.882;6.962;2022-08-01T14:59:55;6.65;;;1.70;;
34499;SDS011;20745;50.882;6.962;2022-08-01T15:02:23;8.70;;;1.60;;
34499;SDS011;20745;50.882;6.962;2022-08-01T15:04:54;8.18;;;1.50;;
34499;SDS011;20745;50.882;6.962;2022-08-01T15:07:21;5.43;;;1.60;;
34499;SDS011;20745;50.882;6.962;2022-08-01T15:09:49;2.85;;;1.45;;
34499;SDS011;20745;50.882;6.962;2022-08-01T15:12:34;2.47;;;1.33;;
34499;SDS011;20745;50.882;6.962;2022-08-01T15:15:24;4.05;;;1.48;;
34499;SDS011;20745;50.882;6.962;2022-08-01T15:17:51;6.10;;;1.75;;
34499;SDS011;20745;50.882;6.962;2022-08-01T15:20:23;4.90;;;1.35;;
34499;SDS011;20745;50.882;6.962;2022-08-01T15:22:51;3.45;;;1.60;;
34499;SDS011;20745;50.882;6.962;2022-08-01T15:25:23;4.35;;;1.40;;
34499;SDS011;20745;50.882;6.962;2022-08-01T15:27:50;3.38;;;1.50;;
34499;SDS011;20745;50.882;6.962;2022-08-01T15:30:21;4.85;;;1.50;;
34499;SDS011;20745;50.882;6.962;2022-08-01T15:32:53;3.63;;;1.60;;
34499;SDS011;20745;50.882;6.962;2022-08-01T15:35:20;5.60;;;1.75;;
34499;SDS011;20745;50.882;6.962;2022-08-01T15:37:47;5.05;;;1.73;;
34499;SDS011;20745;50.882;6.962;2022-08-01T15:40:15;3.53;;;1.77;;
34499;SDS011;20745;50.882;6.962;2022-08-01T15:42:49;6.10;;;1.80;;
34499;SDS011;20745;50.882;6.962;2022-08-01T15:45:20;4.38;;;1.85;;
34499;SDS011;20745;50.882;6.962;2022-08-01T15:48:08;3.97;;;1.58;;
34499;SDS011;20745;50.882;6.962;2022-08-01T15:50:50;5.38;;;1.58;;
34499;SDS011;20745;50.882;6.962;2022-08-01T15:53:22;4.97;;;1.60;;
34499;SDS011;20745;50.882;6.962;2022-08-01T15:55:49;3.78;;;1.70;;
34499;SDS011;20745;50.882;6.962;2022-08-01T15:58:18;3.75;;;1.63;;
34499;SDS011;20745;50.882;6.962;2022-08-01T16:00:51;4.28;;;1.70;;